Time;durP1;ratioP1;P1;durP2;ratioP2;P2;SDS_P1;SDS_P2;PMS_P1;PMS_P2;Temp;Humidity;BMP_temperature;BMP_pressure;BME280_temperature;BME280_humidity;BME280_pressure;Samples;Min_cycle;Max_cycle;Signal;HPM_P1;HPM_P2
2022/10/30 07:53:33;;;;;;;8.93;3.08;;;;;;;;;;5831509;23;20399;-77
2022/10/30 07:55:59;;;;;;;9.60;3.58;;;;;;;;;;4975413;28;20039;-78
2022/10/30 07:58:24;;;;;;;7.13;3.25;;;;;;;;;;4980021;28;20097;-77
2022/10/30 08:00:50;;;;;;;6.22;3.10;;;;;;;;;;4984259;28;21460;-78
2022/10/30 08:03:15;;;;;;;5.53;3.13;;;;;;;;;;4983832;28;20026;-78
2022/10/30 08:05:41;;;;;;;8.23;3.63;;;;;;;;;;4984908;28;20026;-80
2022/10/30 08:08:07;;;;;;;8.85;3.22;;;;;;;;;;4985256;28;20042;-78
2022/10/30 08:10:33;;;;;;;11.65;4.40;;;;;;;;;;4983312;28;20418;-77
2022/10/30 08:12:59;;;;;;;9.02;3.50;;;;;;;;;;4982367;28;20030;-75
2022/10/30 08:15:24;;;;;;;6.03;2.97;;;;;;;;;;4973446;28;20076;-80
2022/10/30 08:17:50;;;;;;;8.07;3.55;;;;;;;;;;4986897;28;20034;-78
2022/10/30 08:20:18;;;;;;;8.10;2.90;;;;;;;;;;4980647;28;20026;-79
2022/10/30 08:22:50;;;;;;;4.90;2.83;;;;;;;;;;4979843;28;20061;-78
2022/10/30 08:25:18;;;;;;;7.32;2.92;;;;;;;;;;4974995;28;20473;-77
2022/10/30 08:27:57;;;;;;;9.50;3.00;;;;;;;;;;4975152;28;20038;-75
2022/10/30 08:30:24;;;;;;;5.55;3.25;;;;;;;;;;4975138;28;20023;-82
2022/10/30 08:32:50;;;;;;;6.65;3.20;;;;;;;;;;4975597;28;20026;-80
2022/10/30 08:35:16;;;;;;;4.28;2.90;;;;;;;;;;4975002;28;20504;-78
2022/10/30 08:37:42;;;;;;;9.20;3.53;;;;;;;;;;4975088;28;20409;-79
2022/10/30 08:40:09;;;;;;;7.65;2.88;;;;;;;;;;4974824;28;20105;-81
2022/10/30 08:42:34;;;;;;;6.90;3.35;;;;;;;;;;4974848;28;20034;-79
2022/10/30 08:45:00;;;;;;;8.60;3.30;;;;;;;;;;4974847;28;20085;-79
2022/10/30 08:47:25;;;;;;;9.13;3.25;;;;;;;;;;4957164;28;20031;-79
2022/10/30 08:49:51;;;;;;;6.35;3.20;;;;;;;;;;4974559;28;20041;-79
2022/10/30 08:52:16;;;;;;;6.80;3.63;;;;;;;;;;4974669;28;20038;-78
2022/10/30 08:54:42;;;;;;;9.70;3.30;;;;;;;;;;4974588;28;20038;-78
2022/10/30 08:57:07;;;;;;;5.70;2.85;;;;;;;;;;4974720;28;20038;-79
2022/10/30 08:59:33;;;;;;;9.43;2.90;;;;;;;;;;4974696;28;20026;-81
2022/10/30 09:01:58;;;;;;;6.35;3.78;;;;;;;;;;4974633;28;20444;-77
2022/10/30 09:04:24;;;;;;;5.90;3.33;;;;;;;;;;4974614;28;20042;-77
2022/10/30 09:06:49;;;;;;;7.10;3.45;;;;;;;;;;4974458;28;20077;-77
2022/10/30 09:09:15;;;;;;;8.80;3.00;;;;;;;;;;4983792;28;20031;-76
2022/10/30 09:11:40;;;;;;;5.63;3.00;;;;;;;;;;4983260;28;20022;-77
2022/10/30 09:14:05;;;;;;;10.80;3.38;;;;;;;;;;4987964;28;20038;-78
2022/10/30 09:16:31;;;;;;;5.47;3.55;;;;;;;;;;4993880;28;20034;-78
2022/10/30 09:18:56;;;;;;;5.22;3.28;;;;;;;;;;4994032;28;20029;-78
2022/10/30 09:21:22;;;;;;;9.73;2.67;;;;;;;;;;4993964;28;20030;-77
2022/10/30 09:23:47;;;;;;;5.85;3.53;;;;;;;;;;4994048;28;20029;-79
2022/10/30 09:26:13;;;;;;;7.05;3.15;;;;;;;;;;4981261;28;20481;-79
2022/10/30 09:28:38;;;;;;;7.43;3.38;;;;;;;;;;4984538;28;20378;-78
2022/10/30 09:31:04;;;;;;;6.47;3.10;;;;;;;;;;4985748;28;20022;-78
2022/10/30 09:33:29;;;;;;;8.07;3.22;;;;;;;;;;4982621;28;20421;-78
2022/10/30 09:35:55;;;;;;;8.75;3.72;;;;;;;;;;4990805;28;20408;-78
2022/10/30 09:38:21;;;;;;;6.95;3.30;;;;;;;;;;4994378;28;20059;-78
2022/10/30 09:40:49;;;;;;;6.97;3.15;;;;;;;;;;4982145;28;20031;-79
2022/10/30 09:43:37;;;;;;;6.60;2.97;;;;;;;;;;4974453;28;20046;-78
2022/10/30 09:46:21;;;;;;;10.93;3.38;;;;;;;;;;4974381;28;20628;-78
2022/10/30 09:48:55;;;;;;;7.10;3.45;;;;;;;;;;4974363;28;20111;-80
2022/10/30 09:52:18;;;;;;;7.93;3.72;;;;;;;;;;4974170;28;20069;-80
2022/10/30 09:55:01;;;;;;;5.95;3.25;;;;;;;;;;4895931;29;20401;-79
2022/10/30 09:57:30;;;;;;;10.35;3.38;;;;;;;;;;4906100;29;20047;-80
2022/10/30 10:00:03;;;;;;;7.32;2.92;;;;;;;;;;4902833;29;20067;-81
2022/10/30 10:02:52;;;;;;;9.35;2.95;;;;;;;;;;4899597;29;20045;-80
2022/10/30 10:05:22;;;;;;;6.17;3.13;;;;;;;;;;4899327;29;20115;-81
2022/10/30 10:07:51;;;;;;;6.70;3.25;;;;;;;;;;4899842;29;20247;-80
2022/10/30 10:10:28;;;;;;;6.72;2.97;;;;;;;;;;4899368;29;20032;-80
2022/10/30 10:12:55;;;;;;;5.63;2.78;;;;;;;;;;4899624;29;20048;-80
2022/10/30 10:15:35;;;;;;;5.93;2.88;;;;;;;;;;4899130;29;20032;-80
2022/10/30 10:18:03;;;;;;;7.45;2.95;;;;;;;;;;4899253;29;20444;-80
2022/10/30 10:20:58;;;;;;;10.27;3.70;;;;;;;;;;4899136;29;20048;-80
2022/10/30 10:23:34;;;;;;;8.85;3.20;;;;;;;;;;4896913;29;20532;-80
2022/10/30 10:26:11;;;;;;;7.95;3.42;;;;;;;;;;4965420;28;20047;-80
2022/10/30 10:29:19;;;;;;;8.57;3.10;;;;;;;;;;4977382;28;20030;-80
2022/10/30 10:31:56;;;;;;;7.45;2.78;;;;;;;;;;4957369;28;20069;-79
2022/10/30 10:34:24;;;;;;;9.82;3.03;;;;;;;;;;4977300;28;20023;-79
2022/10/30 10:37:15;;;;;;;7.60;3.33;;;;;;;;;;4977271;28;20061;-79
2022/10/30 10:39:50;;;;;;;10.02;3.03;;;;;;;;;;4977643;28;20031;-79
2022/10/30 10:42:15;;;;;;;7.40;2.90;;;;;;;;;;4984153;28;20034;-83
2022/10/30 10:45:16;;;;;;;6.82;3.85;;;;;;;;;;4963587;28;20030;-81
2022/10/30 10:48:03;;;;;;;7.47;2.65;;;;;;;;;;4977578;28;20026;-82
2022/10/30 10:50:36;;;;;;;5.97;2.80;;;;;;;;;;4976641;28;20058;-79
2022/10/30 10:53:16;;;;;;;8.45;3.65;;;;;;;;;;4959797;28;20027;-80
2022/10/30 10:55:47;;;;;;;7.80;4.28;;;;;;;;;;4977065;28;20054;-80
2022/10/30 10:58:15;;;;;;;10.15;4.35;;;;;;;;;;4976830;28;20034;-81
2022/10/30 11:00:42;;;;;;;6.85;3.25;;;;;;;;;;4977070;28;20023;-79
2022/10/30 11:03:19;;;;;;;7.15;3.15;;;;;;;;;;4976873;28;20034;-85
2022/10/30 11:05:54;;;;;;;5.93;2.78;;;;;;;;;;4957681;28;20034;-87
2022/10/30 11:08:28;;;;;;;6.78;2.70;;;;;;;;;;4957582;29;20035;-91
2022/10/30 11:10:57;;;;;;;6.88;3.30;;;;;;;;;;4957021;28;20483;-84
2022/10/30 11:13:26;;;;;;;5.20;2.75;;;;;;;;;;4957596;29;20027;-85
2022/10/30 11:16:12;;;;;;;;;;;;;;;;;;4958263;29;20070;-87
2022/10/30 11:18:38;;;;;;;4.97;2.70;;;;;;;;;;4957189;29;19914;-84
2022/10/30 11:21:16;;;;;;;7.72;3.28;;;;;;;;;;4940291;29;20054;-85
2022/10/30 11:23:44;;;;;;;5.55;2.97;;;;;;;;;;4966611;28;20105;-87
2022/10/30 11:26:24;;;;;;;8.03;3.70;;;;;;;;;;4976182;28;20552;-86
2022/10/30 11:29:03;;;;;;;16.23;3.75;;;;;;;;;;4976157;28;20082;-87
2022/10/30 11:31:39;;;;;;;9.73;3.22;;;;;;;;;;4976213;28;20033;-89
2022/10/30 11:34:17;;;;;;;7.28;3.25;;;;;;;;;;4976322;28;20039;-86
2022/10/30 11:36:47;;;;;;;7.03;2.83;;;;;;;;;;4976908;28;20482;-88
2022/10/30 11:39:18;;;;;;;6.30;3.60;;;;;;;;;;4981857;28;20098;-82
2022/10/30 11:42:10;;;;;;;6.07;3.88;;;;;;;;;;4984800;28;20031;-80
2022/10/30 11:44:50;;;;;;;10.43;3.97;;;;;;;;;;4967142;28;20552;-82
2022/10/30 11:47:20;;;;;;;8.32;3.03;;;;;;;;;;4976065;28;20538;-83
2022/10/30 11:49:53;;;;;;;6.30;3.10;;;;;;;;;;4975818;28;20030;-81
2022/10/30 11:52:22;;;;;;;8.68;3.50;;;;;;;;;;4975860;28;20082;-80
2022/10/30 11:55:15;;;;;;;7.05;3.40;;;;;;;;;;4975526;28;20046;-80
2022/10/30 11:57:41;;;;;;;12.13;3.83;;;;;;;;;;4965623;28;20042;-80
2022/10/30 12:00:18;;;;;;;5.82;3.20;;;;;;;;;;4975698;28;20377;-84
2022/10/30 12:02:47;;;;;;;7.88;3.15;;;;;;;;;;4976758;28;20027;-85
2022/10/30 12:05:25;;;;;;;;;;;;;;;;;;4976741;28;20023;-86
2022/10/30 12:07:51;;;;;;;9.05;3.70;;;;;;;;;;4958616;28;19914;-85
2022/10/30 12:10:24;;;;;;;6.18;3.30;;;;;;;;;;4975735;28;20477;-77
2022/10/30 12:12:50;;;;;;;8.65;3.10;;;;;;;;;;4975411;28;20039;-81
2022/10/30 12:15:24;;;;;;;11.07;3.30;;;;;;;;;;4975345;28;20478;-75
2022/10/30 12:18:01;;;;;;;8.55;3.00;;;;;;;;;;4975439;28;20466;-81
2022/10/30 12:20:27;;;;;;;8.90;2.90;;;;;;;;;;4975559;28;20038;-80
2022/10/30 12:22:54;;;;;;;6.85;2.90;;;;;;;;;;4974387;28;20501;-79
2022/10/30 12:25:28;;;;;;;5.97;2.83;;;;;;;;;;4975022;28;20034;-80
2022/10/30 12:28:03;;;;;;;5.90;3.20;;;;;;;;;;4957882;28;20031;-80
2022/10/30 12:30:31;;;;;;;6.80;2.80;;;;;;;;;;4975224;28;20030;-79
2022/10/30 12:33:07;;;;;;;6.68;3.22;;;;;;;;;;4975294;28;20023;-80
2022/10/30 12:36:09;;;;;;;7.97;2.95;;;;;;;;;;4974946;28;20039;-84
2022/10/30 12:38:55;;;;;;;7.38;3.30;;;;;;;;;;4975068;28;20377;-82
2022/10/30 12:41:28;;;;;;;9.13;2.63;;;;;;;;;;4974736;28;20039;-80
2022/10/30 12:44:03;;;;;;;8.93;3.13;;;;;;;;;;4974736;28;20027;-80
2022/10/30 12:46:41;;;;;;;4.65;2.58;;;;;;;;;;4974721;28;20085;-79
2022/10/30 12:49:15;;;;;;;6.93;2.67;;;;;;;;;;4974748;28;20034;-79
2022/10/30 12:52:11;;;;;;;11.30;3.10;;;;;;;;;;4974734;28;20031;-78
2022/10/30 12:54:55;;;;;;;6.68;2.38;;;;;;;;;;4974552;28;20050;-79
2022/10/30 12:57:27;;;;;;;7.72;2.75;;;;;;;;;;4969847;28;20027;-80
2022/10/30 13:00:15;;;;;;;11.27;3.50;;;;;;;;;;4955456;29;20038;-82
2022/10/30 13:02:46;;;;;;;10.27;3.13;;;;;;;;;;4963498;28;20027;-78
2022/10/30 13:05:24;;;;;;;5.93;3.10;;;;;;;;;;4974439;28;20039;-78
2022/10/30 13:08:08;;;;;;;5.28;2.72;;;;;;;;;;4974700;28;20034;-79
2022/10/30 13:10:44;;;;;;;7.55;2.80;;;;;;;;;;4974364;28;20030;-80
2022/10/30 13:13:20;;;;;;;6.45;3.15;;;;;;;;;;4974553;28;20023;-80
2022/10/30 13:15:52;;;;;;;5.78;2.80;;;;;;;;;;4974648;28;20027;-79
2022/10/30 13:18:24;;;;;;;5.75;2.67;;;;;;;;;;4974526;28;20026;-80
2022/10/30 13:21:27;;;;;;;5.57;2.60;;;;;;;;;;4974375;28;20054;-80
2022/10/30 13:24:11;;;;;;;5.85;2.78;;;;;;;;;;4975014;28;20386;-79
2022/10/30 13:27:02;;;;;;;9.90;5.35;;;;;;;;;;4974391;28;20165;-81
2022/10/30 13:30:00;;;;;;;7.38;3.78;;;;;;;;;;4974369;28;20027;-81
2022/10/30 13:32:31;;;;;;;8.88;3.22;;;;;;;;;;4961613;28;20533;-82
2022/10/30 13:35:21;;;;;;;5.93;2.90;;;;;;;;;;4976162;28;20030;-81
2022/10/30 13:38:02;;;;;;;4.82;2.72;;;;;;;;;;4978138;28;20027;-79
2022/10/30 13:40:49;;;;;;;7.63;3.45;;;;;;;;;;4978236;28;20085;-79
2022/10/30 13:43:28;;;;;;;10.32;3.08;;;;;;;;;;4978065;28;20034;-79
2022/10/30 13:46:02;;;;;;;5.47;3.03;;;;;;;;;;4977947;28;20483;-79
2022/10/30 13:48:41;;;;;;;10.65;3.20;;;;;;;;;;4977915;28;20023;-79
2022/10/30 13:51:31;;;;;;;4.97;2.20;;;;;;;;;;4977963;28;20042;-79
2022/10/30 13:54:12;;;;;;;6.82;2.95;;;;;;;;;;4977720;28;20559;-80
2022/10/30 13:56:40;;;;;;;5.93;2.80;;;;;;;;;;4977863;28;20478;-82
2022/10/30 13:59:09;;;;;;;6.00;2.83;;;;;;;;;;4977979;28;20378;-79
2022/10/30 14:01:45;;;;;;;5.18;2.83;;;;;;;;;;4977914;28;20478;-79
2022/10/30 14:04:17;;;;;;;8.68;3.65;;;;;;;;;;4981984;28;20038;-80
2022/10/30 14:06:52;;;;;;;9.68;3.40;;;;;;;;;;4978423;28;20022;-81
2022/10/30 14:09:52;;;;;;;7.57;3.22;;;;;;;;;;4977643;28;20030;-82
2022/10/30 14:12:45;;;;;;;6.47;2.50;;;;;;;;;;4899175;29;20032;-84
2022/10/30 14:15:42;;;;;;;6.00;3.03;;;;;;;;;;4958309;28;20062;-83
2022/10/30 14:18:10;;;;;;;6.80;2.80;;;;;;;;;;4961941;28;20137;-84
2022/10/30 14:20:36;;;;;;;6.65;2.75;;;;;;;;;;4977213;28;20038;-83
2022/10/30 14:23:13;;;;;;;7.07;3.72;;;;;;;;;;4977494;28;20023;-83
2022/10/30 14:25:39;;;;;;;6.30;2.63;;;;;;;;;;4977333;28;20023;-81
2022/10/30 14:28:12;;;;;;;5.57;2.65;;;;;;;;;;4977241;28;20067;-84
2022/10/30 14:30:43;;;;;;;7.30;2.78;;;;;;;;;;4977289;28;20421;-84
2022/10/30 14:33:47;;;;;;;6.63;2.90;;;;;;;;;;4977197;28;20109;-83
2022/10/30 14:36:17;;;;;;;6.30;3.25;;;;;;;;;;4977146;28;20360;-83
2022/10/30 14:39:25;;;;;;;4.60;2.60;;;;;;;;;;4977057;28;20039;-81
2022/10/30 14:41:54;;;;;;;5.65;2.92;;;;;;;;;;4977024;28;20023;-82
2022/10/30 14:44:49;;;;;;;7.70;3.13;;;;;;;;;;4976687;28;20577;-80
2022/10/30 14:47:39;;;;;;;6.47;2.95;;;;;;;;;;4935809;28;20035;-83
2022/10/30 14:50:54;;;;;;;7.80;2.95;;;;;;;;;;4976832;28;20058;-82
2022/10/30 14:53:39;;;;;;;8.63;2.97;;;;;;;;;;4970005;28;20070;-81
2022/10/30 14:56:14;;;;;;;8.63;3.25;;;;;;;;;;4959508;28;20051;-81
2022/10/30 14:58:40;;;;;;;3.72;2.45;;;;;;;;;;4976516;28;20045;-83
2022/10/30 15:01:08;;;;;;;4.93;2.88;;;;;;;;;;4976692;28;20097;-78
2022/10/30 15:03:59;;;;;;;5.70;2.85;;;;;;;;;;4961030;28;20031;-82
2022/10/30 15:07:03;;;;;;;5.95;3.10;;;;;;;;;;4957074;28;20031;-83
2022/10/30 15:09:42;;;;;;;9.20;3.38;;;;;;;;;;4957263;28;20023;-84
2022/10/30 15:12:18;;;;;;;;;;;;;;;;;;4957725;28;20082;-87
2022/10/30 15:14:45;;;;;;;5.75;2.60;;;;;;;;;;4957298;28;19961;-86
2022/10/30 15:17:48;;;;;;;6.80;2.45;;;;;;;;;;4957516;28;20110;-86
2022/10/30 15:20:20;;;;;;;4.70;2.53;;;;;;;;;;4957008;28;20038;-82
2022/10/30 15:22:53;;;;;;;6.53;2.45;;;;;;;;;;4956978;28;20433;-85
2022/10/30 15:25:21;;;;;;;6.22;2.75;;;;;;;;;;4956845;28;20106;-85
2022/10/30 15:27:53;;;;;;;8.88;2.97;;;;;;;;;;4955683;29;20059;-86
2022/10/30 15:30:21;;;;;;;6.45;2.78;;;;;;;;;;4956938;28;20026;-86
2022/10/30 15:32:46;;;;;;;8.70;2.65;;;;;;;;;;4955623;29;20552;-85
2022/10/30 15:35:21;;;;;;;10.50;2.97;;;;;;;;;;4956927;28;20031;-86
2022/10/30 15:38:04;;;;;;;10.27;4.00;;;;;;;;;;4966463;28;20015;-85
2022/10/30 15:40:32;;;;;;;6.25;3.10;;;;;;;;;;4975983;28;20038;-85
2022/10/30 15:42:59;;;;;;;7.57;3.38;;;;;;;;;;4976101;28;20417;-85
2022/10/30 15:45:34;;;;;;;11.48;3.50;;;;;;;;;;4957865;28;20170;-83
2022/10/30 15:48:26;;;;;;;8.90;3.20;;;;;;;;;;4975732;28;20030;-85
2022/10/30 15:51:01;;;;;;;6.82;3.03;;;;;;;;;;4970609;28;20043;-86
2022/10/30 15:53:33;;;;;;;7.03;2.80;;;;;;;;;;4975842;28;20090;-85
2022/10/30 15:55:59;;;;;;;8.88;3.10;;;;;;;;;;4975580;28;20094;-83
2022/10/30 15:58:25;;;;;;;6.68;3.38;;;;;;;;;;4975622;28;20478;-88
2022/10/30 16:01:00;;;;;;;9.95;3.00;;;;;;;;;;4976088;28;20042;-87
2022/10/30 16:03:27;;;;;;;4.15;2.60;;;;;;;;;;4961633;28;20582;-86
2022/10/30 16:06:30;;;;;;;5.50;3.08;;;;;;;;;;4956480;28;20038;-92
2022/10/30 16:08:55;;;;;;;6.38;2.85;;;;;;;;;;4926045;28;20043;-89
2022/10/30 16:11:22;;;;;;;7.13;2.80;;;;;;;;;;4961813;28;20023;-86
2022/10/30 16:13:48;;;;;;;10.57;4.47;;;;;;;;;;4975661;28;20050;-91
2022/10/30 16:16:20;;;;;;;8.23;3.70;;;;;;;;;;4975470;28;20037;-81
2022/10/30 16:18:46;;;;;;;7.72;3.00;;;;;;;;;;4975264;28;20513;-82
2022/10/30 16:21:15;;;;;;;7.75;2.47;;;;;;;;;;4975385;28;20035;-82
2022/10/30 16:23:47;;;;;;;8.10;2.80;;;;;;;;;;4975280;28;20023;-82
2022/10/30 16:26:35;;;;;;;7.18;3.10;;;;;;;;;;4975332;28;20042;-82
2022/10/30 16:29:17;;;;;;;5.57;3.00;;;;;;;;;;4975063;28;20027;-81
2022/10/30 16:31:48;;;;;;;7.78;2.65;;;;;;;;;;4975152;28;20023;-81
2022/10/30 16:34:30;;;;;;;7.78;3.28;;;;;;;;;;4957692;28;20533;-81
2022/10/30 16:36:57;;;;;;;7.82;3.78;;;;;;;;;;4974896;28;20085;-83
2022/10/30 16:39:24;;;;;;;10.05;3.35;;;;;;;;;;4974787;28;20031;-79
2022/10/30 16:41:50;;;;;;;9.15;3.78;;;;;;;;;;4975357;28;20026;-79
2022/10/30 16:44:24;;;;;;;8.75;3.35;;;;;;;;;;4974661;28;20031;-79
2022/10/30 16:46:55;;;;;;;9.73;3.45;;;;;;;;;;4974476;28;20469;-86
2022/10/30 16:49:28;;;;;;;12.25;3.58;;;;;;;;;;4974847;28;20027;-83
2022/10/30 16:52:06;;;;;;;7.88;3.58;;;;;;;;;;4974869;28;20058;-82
2022/10/30 16:54:36;;;;;;;8.25;3.75;;;;;;;;;;4974691;28;20516;-82
2022/10/30 16:57:08;;;;;;;8.40;3.03;;;;;;;;;;4972105;28;20042;-81
2022/10/30 16:59:42;;;;;;;6.57;2.63;;;;;;;;;;4955434;29;20027;-83
2022/10/30 17:02:35;;;;;;;9.40;3.40;;;;;;;;;;4959390;28;20062;-84
2022/10/30 17:05:18;;;;;;;8.38;3.13;;;;;;;;;;4971877;28;20454;-84
2022/10/30 17:07:56;;;;;;;5.53;3.00;;;;;;;;;;4974686;28;20441;-84
2022/10/30 17:10:35;;;;;;;9.02;2.90;;;;;;;;;;4974045;28;20105;-81
2022/10/30 17:13:31;;;;;;;6.75;3.20;;;;;;;;;;4974357;28;20031;-84
2022/10/30 17:15:58;;;;;;;9.98;3.65;;;;;;;;;;4974525;28;20038;-84
2022/10/30 17:18:31;;;;;;;7.95;3.50;;;;;;;;;;4974535;28;20382;-81
2022/10/30 17:21:15;;;;;;;6.10;3.00;;;;;;;;;;4976817;28;20054;-82
2022/10/30 17:23:45;;;;;;;6.35;2.67;;;;;;;;;;4984554;28;20358;-83
2022/10/30 17:26:12;;;;;;;6.97;2.78;;;;;;;;;;4982595;28;20465;-83
2022/10/30 17:28:38;;;;;;;8.23;3.15;;;;;;;;;;4993990;28;20030;-81
2022/10/30 17:31:22;;;;;;;10.20;3.20;;;;;;;;;;4976279;28;20038;-81
2022/10/30 17:34:12;;;;;;;12.52;3.38;;;;;;;;;;4993505;28;20422;-81
2022/10/30 17:36:38;;;;;;;6.82;3.50;;;;;;;;;;4984425;28;20106;-83
2022/10/30 17:39:04;;;;;;;7.63;3.13;;;;;;;;;;4974215;28;20504;-79
2022/10/30 17:41:29;;;;;;;7.47;3.30;;;;;;;;;;4974229;28;20063;-79
2022/10/30 17:43:55;;;;;;;8.80;3.50;;;;;;;;;;4974207;28;20406;-78
2022/10/30 17:46:22;;;;;;;8.23;4.20;;;;;;;;;;4973829;28;20043;-78
2022/10/30 17:48:47;;;;;;;7.85;4.03;;;;;;;;;;4974281;28;20034;-78
2022/10/30 17:51:14;;;;;;;9.40;4.28;;;;;;;;;;4974234;28;20035;-84
2022/10/30 17:53:40;;;;;;;7.88;4.28;;;;;;;;;;4974271;28;20105;-80
2022/10/30 17:56:15;;;;;;;11.25;4.90;;;;;;;;;;4972103;28;20162;-80
2022/10/30 17:58:41;;;;;;;12.27;4.88;;;;;;;;;;4983980;28;20558;-82
2022/10/30 18:01:08;;;;;;;10.13;6.00;;;;;;;;;;4981861;28;20127;-84
2022/10/30 18:03:33;;;;;;;9.98;5.40;;;;;;;;;;4974221;28;20372;-82
2022/10/30 18:06:01;;;;;;;14.27;4.57;;;;;;;;;;4974020;28;20026;-83
2022/10/30 18:08:27;;;;;;;11.52;3.78;;;;;;;;;;4974371;28;20082;-78
2022/10/30 18:10:52;;;;;;;5.28;2.92;;;;;;;;;;4973966;28;20034;-78
2022/10/30 18:13:18;;;;;;;8.30;3.03;;;;;;;;;;4973887;28;20031;-79
2022/10/30 18:15:50;;;;;;;6.30;3.10;;;;;;;;;;4974062;28;20082;-80
2022/10/30 18:18:16;;;;;;;5.50;2.80;;;;;;;;;;4974080;28;20051;-82
2022/10/30 18:20:41;;;;;;;9.13;3.88;;;;;;;;;;4974103;28;20430;-81
2022/10/30 18:23:18;;;;;;;8.15;3.28;;;;;;;;;;4977333;28;20114;-80
2022/10/30 18:25:43;;;;;;;6.75;3.17;;;;;;;;;;4977531;28;20065;-76
2022/10/30 18:28:09;;;;;;;9.35;4.40;;;;;;;;;;4977715;28;20058;-85
2022/10/30 18:30:35;;;;;;;9.93;4.28;;;;;;;;;;4977981;28;20035;-81
2022/10/30 18:33:00;;;;;;;7.47;4.07;;;;;;;;;;4977839;28;20054;-79
2022/10/30 18:35:36;;;;;;;6.38;4.10;;;;;;;;;;4977530;28;20463;-78
2022/10/30 18:38:02;;;;;;;8.75;3.55;;;;;;;;;;4977742;28;20488;-78
2022/10/30 18:40:28;;;;;;;6.88;3.78;;;;;;;;;;4977326;28;20090;-85
2022/10/30 18:42:54;;;;;;;8.77;3.50;;;;;;;;;;4977470;28;20027;-84
2022/10/30 18:45:22;;;;;;;9.10;3.03;;;;;;;;;;4986316;28;20081;-80
2022/10/30 18:47:48;;;;;;;9.07;3.70;;;;;;;;;;4980340;28;20027;-91
2022/10/30 18:50:15;;;;;;;7.35;4.15;;;;;;;;;;4962131;28;20027;-81
2022/10/30 18:52:41;;;;;;;10.30;4.10;;;;;;;;;;4977960;28;20109;-84
2022/10/30 18:55:33;;;;;;;9.10;3.58;;;;;;;;;;4976800;28;20078;-79
2022/10/30 18:57:58;;;;;;;11.27;3.42;;;;;;;;;;4977065;28;20045;-78
2022/10/30 19:00:27;;;;;;;9.88;3.70;;;;;;;;;;4976980;28;20027;-79
2022/10/30 19:02:54;;;;;;;7.13;3.30;;;;;;;;;;4976669;28;20019;-78
2022/10/30 19:05:37;;;;;;;12.50;4.07;;;;;;;;;;4976573;28;20027;-80
2022/10/30 19:08:03;;;;;;;7.88;3.33;;;;;;;;;;4976980;28;20470;-80
2022/10/30 19:10:32;;;;;;;7.05;3.55;;;;;;;;;;4975573;28;20373;-79
2022/10/30 19:13:07;;;;;;;12.40;5.78;;;;;;;;;;4972549;28;20029;-81
2022/10/30 19:15:35;;;;;;;11.60;6.38;;;;;;;;;;4975862;28;20106;-81
2022/10/30 19:18:02;;;;;;;8.90;4.25;;;;;;;;;;4976455;28;20027;-82
2022/10/30 19:20:28;;;;;;;8.68;3.90;;;;;;;;;;4976198;28;20034;-81
2022/10/30 19:22:54;;;;;;;6.97;3.88;;;;;;;;;;4976394;28;20078;-81
2022/10/30 19:25:19;;;;;;;6.32;3.63;;;;;;;;;;4976117;28;20034;-78
2022/10/30 19:27:45;;;;;;;8.38;4.32;;;;;;;;;;4976169;28;20081;-80
2022/10/30 19:30:11;;;;;;;8.70;3.63;;;;;;;;;;4976054;28;20085;-81
2022/10/30 19:32:37;;;;;;;7.20;3.72;;;;;;;;;;4975779;28;20497;-82
2022/10/30 19:35:04;;;;;;;9.35;3.50;;;;;;;;;;4976119;28;20023;-81
2022/10/30 19:37:29;;;;;;;6.70;4.25;;;;;;;;;;4976388;28;20061;-82
2022/10/30 19:39:55;;;;;;;12.07;5.07;;;;;;;;;;4958492;28;20121;-82
2022/10/30 19:42:20;;;;;;;9.05;3.40;;;;;;;;;;4976127;28;20109;-81
2022/10/30 19:44:45;;;;;;;6.30;3.65;;;;;;;;;;4975807;28;20019;-81
2022/10/30 19:47:11;;;;;;;7.32;3.15;;;;;;;;;;4975661;28;20027;-80
2022/10/30 19:49:36;;;;;;;6.30;2.80;;;;;;;;;;4975571;28;20031;-81
2022/10/30 19:52:03;;;;;;;9.10;2.97;;;;;;;;;;4975890;28;20061;-82
2022/10/30 19:54:28;;;;;;;7.68;3.55;;;;;;;;;;4975695;28;20034;-84
2022/10/30 19:56:53;;;;;;;8.93;3.90;;;;;;;;;;4975756;28;20474;-83
2022/10/30 19:59:19;;;;;;;8.02;4.00;;;;;;;;;;4975686;28;20058;-85
2022/10/30 20:01:44;;;;;;;7.97;4.07;;;;;;;;;;4975468;28;20038;-83
2022/10/30 20:04:10;;;;;;;6.78;3.85;;;;;;;;;;4975507;28;20039;-85
2022/10/30 20:06:35;;;;;;;6.50;3.92;;;;;;;;;;4975572;28;20382;-80
2022/10/30 20:09:01;;;;;;;7.68;4.65;;;;;;;;;;4975707;28;20103;-87
2022/10/30 20:11:27;;;;;;;7.40;4.45;;;;;;;;;;4975485;28;20030;-85
2022/10/30 20:13:53;;;;;;;9.43;4.88;;;;;;;;;;4975508;28;20476;-83
2022/10/30 20:16:18;;;;;;;9.20;4.70;;;;;;;;;;4982749;28;20050;-80
2022/10/30 20:18:44;;;;;;;12.38;8.68;;;;;;;;;;4980372;28;20085;-84
2022/10/30 20:21:12;;;;;;;16.67;8.75;;;;;;;;;;4975292;28;20033;-81
2022/10/30 20:23:37;;;;;;;12.18;6.20;;;;;;;;;;4975132;28;20026;-83
2022/10/30 20:26:19;;;;;;;8.25;4.78;;;;;;;;;;4975236;28;20058;-83
2022/10/30 20:28:44;;;;;;;8.05;4.45;;;;;;;;;;4975096;28;20029;-81
2022/10/30 20:31:11;;;;;;;7.43;4.28;;;;;;;;;;4975139;28;20030;-82
2022/10/30 20:33:36;;;;;;;9.18;3.90;;;;;;;;;;4974910;28;20081;-82
2022/10/30 20:36:03;;;;;;;7.30;3.75;;;;;;;;;;4975094;28;20478;-82
2022/10/30 20:38:31;;;;;;;9.23;3.10;;;;;;;;;;4975166;28;20430;-82
2022/10/30 20:40:59;;;;;;;7.20;3.05;;;;;;;;;;4957643;28;20023;-83
2022/10/30 20:43:29;;;;;;;7.30;3.25;;;;;;;;;;4974312;28;20382;-81
2022/10/30 20:45:54;;;;;;;6.82;2.97;;;;;;;;;;4974372;28;20374;-80
2022/10/30 20:48:19;;;;;;;6.00;3.08;;;;;;;;;;4974761;28;20110;-79
2022/10/30 20:50:45;;;;;;;8.88;3.30;;;;;;;;;;4975019;28;20019;-78
2022/10/30 20:53:12;;;;;;;7.80;3.42;;;;;;;;;;4974834;28;20081;-78
2022/10/30 20:55:39;;;;;;;8.70;3.60;;;;;;;;;;4974389;28;20387;-78
2022/10/30 20:58:05;;;;;;;9.07;3.45;;;;;;;;;;4974518;28;20035;-78
2022/10/30 21:00:31;;;;;;;9.23;4.57;;;;;;;;;;4974692;28;20370;-78
2022/10/30 21:02:56;;;;;;;7.90;3.92;;;;;;;;;;4974883;28;20030;-78
2022/10/30 21:05:22;;;;;;;13.27;4.22;;;;;;;;;;4974605;28;20140;-78
2022/10/30 21:07:47;;;;;;;8.02;3.78;;;;;;;;;;4974565;28;20058;-78
2022/10/30 21:10:13;;;;;;;10.63;4.22;;;;;;;;;;4974594;28;20078;-78
2022/10/30 21:12:38;;;;;;;9.18;3.90;;;;;;;;;;4978004;28;20069;-78
2022/10/30 21:15:04;;;;;;;5.75;3.20;;;;;;;;;;4994080;28;20169;-79
2022/10/30 21:17:31;;;;;;;8.18;3.60;;;;;;;;;;4993965;28;20110;-79
2022/10/30 21:19:57;;;;;;;8.18;3.75;;;;;;;;;;4979556;28;20038;-80
2022/10/30 21:22:22;;;;;;;9.50;3.88;;;;;;;;;;4974649;28;20027;-78
2022/10/30 21:24:48;;;;;;;7.85;3.70;;;;;;;;;;4974469;28;20034;-80
2022/10/30 21:27:13;;;;;;;7.47;4.25;;;;;;;;;;4974241;28;20029;-78
2022/10/30 21:29:39;;;;;;;13.98;9.23;;;;;;;;;;4974300;28;20033;-78
2022/10/30 21:32:04;;;;;;;14.52;8.52;;;;;;;;;;4974387;28;20070;-80
2022/10/30 21:34:30;;;;;;;13.73;5.55;;;;;;;;;;4974476;28;20102;-80
2022/10/30 21:36:55;;;;;;;11.32;5.07;;;;;;;;;;4974257;28;20367;-79
2022/10/30 21:39:21;;;;;;;8.07;4.05;;;;;;;;;;4974363;28;20470;-79
2022/10/30 21:41:46;;;;;;;8.32;4.85;;;;;;;;;;4974122;28;20030;-78
2022/10/30 21:44:14;;;;;;;8.30;3.80;;;;;;;;;;4974480;28;20027;-80
2022/10/30 21:46:39;;;;;;;15.75;3.40;;;;;;;;;;4974110;28;20038;-79
2022/10/30 21:49:06;;;;;;;8.55;3.80;;;;;;;;;;4974172;28;20035;-81
2022/10/30 21:51:32;;;;;;;10.02;3.35;;;;;;;;;;4974270;28;20089;-81
2022/10/30 21:53:57;;;;;;;9.82;3.53;;;;;;;;;;4973946;28;20027;-80
2022/10/30 21:56:26;;;;;;;6.70;3.80;;;;;;;;;;4976540;28;20039;-82
2022/10/30 21:58:53;;;;;;;9.23;4.03;;;;;;;;;;4977870;28;20122;-81
2022/10/30 22:01:19;;;;;;;6.63;3.88;;;;;;;;;;4977955;28;20034;-80
2022/10/30 22:03:45;;;;;;;5.28;3.25;;;;;;;;;;4977626;28;20035;-81
2022/10/30 22:06:13;;;;;;;6.07;3.03;;;;;;;;;;4977701;28;20022;-84
2022/10/30 22:08:39;;;;;;;5.18;2.88;;;;;;;;;;4977719;28;20062;-81
2022/10/30 22:11:07;;;;;;;5.90;3.42;;;;;;;;;;4977570;28;20046;-80
2022/10/30 22:13:33;;;;;;;8.15;3.72;;;;;;;;;;4977634;28;20034;-81
2022/10/30 22:15:58;;;;;;;7.20;3.20;;;;;;;;;;4977618;28;20027;-81
2022/10/30 22:18:24;;;;;;;7.35;2.80;;;;;;;;;;4977818;28;20034;-81
2022/10/30 22:20:50;;;;;;;5.45;3.17;;;;;;;;;;4977897;28;20022;-83
2022/10/30 22:23:15;;;;;;;9.10;3.83;;;;;;;;;;4977792;28;20038;-82
2022/10/30 22:25:41;;;;;;;5.38;3.30;;;;;;;;;;4977471;28;20035;-83
2022/10/30 22:28:06;;;;;;;10.07;3.03;;;;;;;;;;4977917;28;20434;-81
2022/10/30 22:30:32;;;;;;;9.30;3.60;;;;;;;;;;4977371;28;20100;-81
2022/10/30 22:32:57;;;;;;;6.43;3.50;;;;;;;;;;4977544;28;20034;-80
2022/10/30 22:35:23;;;;;;;7.10;3.40;;;;;;;;;;4977779;28;20443;-81
2022/10/30 22:37:48;;;;;;;6.07;3.42;;;;;;;;;;4977362;28;20031;-81
2022/10/30 22:40:14;;;;;;;10.32;3.60;;;;;;;;;;4977254;28;20031;-83
2022/10/30 22:42:39;;;;;;;12.02;4.88;;;;;;;;;;4977775;28;20105;-82
2022/10/30 22:45:05;;;;;;;9.38;4.03;;;;;;;;;;4977183;28;20027;-82
2022/10/30 22:47:31;;;;;;;9.15;3.75;;;;;;;;;;4977130;28;20023;-83
2022/10/30 22:49:56;;;;;;;8.57;4.53;;;;;;;;;;4977138;28;20033;-82
2022/10/30 22:52:22;;;;;;;12.73;5.40;;;;;;;;;;4977142;28;20490;-83
2022/10/30 22:54:47;;;;;;;11.35;5.07;;;;;;;;;;4959515;28;20409;-83
2022/10/30 22:57:12;;;;;;;12.05;5.32;;;;;;;;;;4977117;28;20030;-83
